sensor_id;sensor_type;location;lat;lon;timestamp;pressure;altitude;pressure_sealevel;temperature;humidity
12879;BME280;20617;49.476;10.986;2022-11-12T00:01:04;100022.00;;;8.05;100.00
12879;BME280;20617;49.476;10.986;2022-11-12T00:03:28;100021.16;;;8.03;100.00
12879;BME280;20617;49.476;10.986;2022-11-12T00:05:54;100017.72;;;8.01;100.00
12879;BME280;20617;49.476;10.986;2022-11-12T00:08:18;100013.41;;;7.98;100.00
12879;BME280;20617;49.476;10.986;2022-11-12T00:10:42;100023.75;;;8.01;100.00
12879;BME280;20617;49.476;10.986;2022-11-12T00:13:06;100023.75;;;8.00;100.00
12879;BME280;20617;49.476;10.986;2022-11-12T00:15:29;100025.50;;;7.98;100.00
12879;BME280;20617;49.476;10.986;2022-11-12T00:17:52;100023.75;;;7.97;100.00
12879;BME280;20617;49.476;10.986;2022-11-12T00:20:16;100022.94;;;7.94;100.00
12879;BME280;20617;49.476;10.986;2022-11-12T00:22:42;100024.66;;;7.92;100.00
12879;BME280;20617;49.476;10.986;2022-11-12T00:25:06;100019.47;;;7.91;100.00
12879;BME280;20617;49.476;10.986;2022-11-12T00:27:31;100018.63;;;7.87;100.00
12879;BME280;20617;49.476;10.986;2022-11-12T00:29:54;100015.16;;;7.82;100.00
12879;BME280;20617;49.476;10.986;2022-11-12T00:32:17;100017.75;;;7.79;100.00
12879;BME280;20617;49.476;10.986;2022-11-12T00:34:40;100016.91;;;7.76;100.00
12879;BME280;20617;49.476;10.986;2022-11-12T00:37:07;100027.28;;;7.76;100.00
12879;BME280;20617;49.476;10.986;2022-11-12T00:39:33;100017.78;;;7.75;100.00
12879;BME280;20617;49.476;10.986;2022-11-12T00:41:56;100009.16;;;7.72;100.00
12879;BME280;20617;49.476;10.986;2022-11-12T00:44:20;100010.91;;;7.66;100.00
12879;BME280;20617;49.476;10.986;2022-11-12T00:46:43;100010.91;;;7.63;100.00
12879;BME280;20617;49.476;10.986;2022-11-12T00:49:07;100014.34;;;7.56;100.00
12879;BME280;20617;49.476;10.986;2022-11-12T00:51:30;100012.63;;;7.50;100.00
12879;BME280;20617;49.476;10.986;2022-11-12T00:53:53;100019.56;;;7.51;100.00
12879;BME280;20617;49.476;10.986;2022-11-12T00:56:19;100009.19;;;7.53;100.00
12879;BME280;20617;49.476;10.986;2022-11-12T00:58:43;100002.28;;;7.52;100.00
12879;BME280;20617;49.476;10.986;2022-11-12T01:01:08;100005.75;;;7.51;100.00
12879;BME280;20617;49.476;10.986;2022-11-12T01:03:32;99999.69;;;7.50;100.00
12879;BME280;20617;49.476;10.986;2022-11-12T01:06:01;100000.56;;;7.49;100.00
12879;BME280;20617;49.476;10.986;2022-11-12T01:08:25;99991.94;;;7.48;100.00
12879;BME280;20617;49.476;10.986;2022-11-12T01:10:50;99997.97;;;7.51;100.00
12879;BME280;20617;49.476;10.986;2022-11-12T01:13:16;99992.81;;;7.51;100.00
12879;BME280;20617;49.476;10.986;2022-11-12T01:15:40;99995.38;;;7.51;100.00
12879;BME280;20617;49.476;10.986;2022-11-12T01:18:04;99988.47;;;7.51;100.00
12879;BME280;20617;49.476;10.986;2022-11-12T01:20:27;99986.72;;;7.55;100.00
12879;BME280;20617;49.476;10.986;2022-11-12T01:22:51;99988.44;;;7.60;100.00
12879;BME280;20617;49.476;10.986;2022-11-12T01:25:14;99982.41;;;7.63;100.00
12879;BME280;20617;49.476;10.986;2022-11-12T01:27:37;99978.94;;;7.64;100.00
12879;BME280;20617;49.476;10.986;2022-11-12T01:30:04;99972.03;;;7.63;100.00
12879;BME280;20617;49.476;10.986;2022-11-12T01:32:28;99974.59;;;7.64;100.00
12879;BME280;20617;49.476;10.986;2022-11-12T01:34:51;99965.97;;;7.65;100.00
12879;BME280;20617;49.476;10.986;2022-11-12T01:37:14;99968.56;;;7.68;100.00
12879;BME280;20617;49.476;10.986;2022-11-12T01:39:38;99971.13;;;7.70;100.00
12879;BME280;20617;49.476;10.986;2022-11-12T01:42:03;99968.56;;;7.67;100.00
12879;BME280;20617;49.476;10.986;2022-11-12T01:44:30;99959.03;;;7.70;100.00
12879;BME280;20617;49.476;10.986;2022-11-12T01:47:03;99953.84;;;7.72;100.00
12879;BME280;20617;49.476;10.986;2022-11-12T01:49:31;99953.00;;;7.75;100.00
12879;BME280;20617;49.476;10.986;2022-11-12T01:51:59;99946.94;;;7.72;100.00
12879;BME280;20617;49.476;10.986;2022-11-12T01:54:26;99951.25;;;7.74;100.00
12879;BME280;20617;49.476;10.986;2022-11-12T01:56:50;99947.84;;;7.61;100.00
12879;BME280;20617;49.476;10.986;2022-11-12T01:59:17;99948.72;;;7.63;100.00
12879;BME280;20617;49.476;10.986;2022-11-12T02:01:42;99950.44;;;7.61;100.00
12879;BME280;20617;49.476;10.986;2022-11-12T02:04:07;99953.03;;;7.59;100.00
12879;BME280;20617;49.476;10.986;2022-11-12T02:06:32;99950.44;;;7.58;100.00
12879;BME280;20617;49.476;10.986;2022-11-12T02:08:56;99945.25;;;7.58;100.00
12879;BME280;20617;49.476;10.986;2022-11-12T02:11:20;99948.72;;;7.57;100.00
12879;BME280;20617;49.476;10.986;2022-11-12T02:13:46;99953.88;;;7.58;100.00
12879;BME280;20617;49.476;10.986;2022-11-12T02:16:20;99953.03;;;7.58;100.00
12879;BME280;20617;49.476;10.986;2022-11-12T02:18:44;99955.63;;;7.56;100.00
12879;BME280;20617;49.476;10.986;2022-11-12T02:21:10;99953.03;;;7.59;100.00
12879;BME280;20617;49.476;10.986;2022-11-12T02:23:36;99950.44;;;7.61;100.00
12879;BME280;20617;49.476;10.986;2022-11-12T02:25:59;99946.09;;;7.64;100.00
12879;BME280;20617;49.476;10.986;2022-11-12T02:28:23;99945.25;;;7.62;100.00
12879;BME280;20617;49.476;10.986;2022-11-12T02:30:48;99944.34;;;7.65;100.00
12879;BME280;20617;49.476;10.986;2022-11-12T02:33:11;99946.13;;;7.60;100.00
12879;BME280;20617;49.476;10.986;2022-11-12T02:35:35;99952.16;;;7.56;100.00
12879;BME280;20617;49.476;10.986;2022-11-12T02:37:58;99955.63;;;7.55;100.00
12879;BME280;20617;49.476;10.986;2022-11-12T02:40:25;99949.59;;;7.54;100.00
12879;BME280;20617;49.476;10.986;2022-11-12T02:42:48;99953.03;;;7.56;100.00
12879;BME280;20617;49.476;10.986;2022-11-12T02:45:12;99947.00;;;7.53;100.00
12879;BME280;20617;49.476;10.986;2022-11-12T02:47:35;99953.03;;;7.53;100.00
12879;BME280;20617;49.476;10.986;2022-11-12T02:49:58;99945.25;;;7.53;100.00
12879;BME280;20617;49.476;10.986;2022-11-12T02:52:22;99949.59;;;7.54;100.00
12879;BME280;20617;49.476;10.986;2022-11-12T02:54:47;99946.13;;;7.57;100.00
12879;BME280;20617;49.476;10.986;2022-11-12T02:57:18;99948.72;;;7.58;100.00
12879;BME280;20617;49.476;10.986;2022-11-12T02:59:43;99953.91;;;7.55;100.00
12879;BME280;20617;49.476;10.986;2022-11-12T03:02:06;99953.03;;;7.53;100.00
12879;BME280;20617;49.476;10.986;2022-11-12T03:04:29;99960.78;;;7.56;100.00
12879;BME280;20617;49.476;10.986;2022-11-12T03:06:53;99962.53;;;7.59;100.00
12879;BME280;20617;49.476;10.986;2022-11-12T03:09:16;99957.34;;;7.60;100.00
12879;BME280;20617;49.476;10.986;2022-11-12T03:11:40;99964.28;;;7.60;100.00
12879;BME280;20617;49.476;10.986;2022-11-12T03:14:05;99965.13;;;7.57;100.00
12879;BME280;20617;49.476;10.986;2022-11-12T03:16:29;99966.88;;;7.52;100.00
12879;BME280;20617;49.476;10.986;2022-11-12T03:18:52;99959.97;;;7.48;100.00
12879;BME280;20617;49.476;10.986;2022-11-12T03:21:16;99966.88;;;7.49;100.00
12879;BME280;20617;49.476;10.986;2022-11-12T03:23:39;99962.53;;;7.53;100.00
12879;BME280;20617;49.476;10.986;2022-11-12T03:26:03;99969.47;;;7.54;100.00
12879;BME280;20617;49.476;10.986;2022-11-12T03:28:26;99958.19;;;7.56;100.00
12879;BME280;20617;49.476;10.986;2022-11-12T03:30:55;99956.50;;;7.52;100.00
12879;BME280;20617;49.476;10.986;2022-11-12T03:33:19;99952.16;;;7.53;100.00
12879;BME280;20617;49.476;10.986;2022-11-12T03:35:42;99954.75;;;7.57;100.00
12879;BME280;20617;49.476;10.986;2022-11-12T03:38:06;99951.31;;;7.54;100.00
12879;BME280;20617;49.476;10.986;2022-11-12T03:40:30;99956.50;;;7.54;100.00
12879;BME280;20617;49.476;10.986;2022-11-12T03:42:53;99957.38;;;7.51;100.00
12879;BME280;20617;49.476;10.986;2022-11-12T03:45:18;99950.47;;;7.52;100.00
12879;BME280;20617;49.476;10.986;2022-11-12T03:47:48;99959.97;;;7.51;100.00
12879;BME280;20617;49.476;10.986;2022-11-12T03:50:13;99960.81;;;7.52;100.00
12879;BME280;20617;49.476;10.986;2022-11-12T03:52:37;99947.84;;;7.55;100.00
12879;BME280;20617;49.476;10.986;2022-11-12T03:55:01;99949.59;;;7.54;100.00
12879;BME280;20617;49.476;10.986;2022-11-12T03:57:27;99952.16;;;7.56;100.00
12879;BME280;20617;49.476;10.986;2022-11-12T03:59:51;99953.03;;;7.55;100.00
12879;BME280;20617;49.476;10.986;2022-11-12T04:02:14;99951.31;;;7.54;100.00
12879;BME280;20617;49.476;10.986;2022-11-12T04:04:40;99958.22;;;7.47;100.00
12879;BME280;20617;49.476;10.986;2022-11-12T04:07:16;99948.75;;;7.38;100.00
12879;BME280;20617;49.476;10.986;2022-11-12T04:09:52;99954.78;;;7.36;100.00
12879;BME280;20617;49.476;10.986;2022-11-12T04:12:15;99953.09;;;7.36;100.00
12879;BME280;20617;49.476;10.986;2022-11-12T04:14:51;99950.50;;;7.29;100.00
12879;BME280;20617;49.476;10.986;2022-11-12T04:17:14;99953.97;;;7.24;100.00
12879;BME280;20617;49.476;10.986;2022-11-12T04:19:53;99948.81;;;7.21;100.00
12879;BME280;20617;49.476;10.986;2022-11-12T04:22:29;99957.44;;;7.19;100.00
12879;BME280;20617;49.476;10.986;2022-11-12T04:24:52;99957.41;;;7.17;100.00
12879;BME280;20617;49.476;10.986;2022-11-12T04:27:29;99960.88;;;7.16;100.00
12879;BME280;20617;49.476;10.986;2022-11-12T04:29:53;99965.19;;;7.11;100.00
12879;BME280;20617;49.476;10.986;2022-11-12T04:32:31;99963.47;;;7.09;100.00
12879;BME280;20617;49.476;10.986;2022-11-12T04:35:07;99965.19;;;7.07;100.00
12879;BME280;20617;49.476;10.986;2022-11-12T04:37:33;99969.53;;;7.05;100.00
12879;BME280;20617;49.476;10.986;2022-11-12T04:40:08;99972.97;;;7.00;100.00
12879;BME280;20617;49.476;10.986;2022-11-12T04:42:46;99972.97;;;6.99;100.00
12879;BME280;20617;49.476;10.986;2022-11-12T04:45:22;99967.78;;;6.91;100.00
12879;BME280;20617;49.476;10.986;2022-11-12T04:47:46;99976.41;;;6.89;100.00
12879;BME280;20617;49.476;10.986;2022-11-12T04:50:16;99977.28;;;6.86;100.00
12879;BME280;20617;49.476;10.986;2022-11-12T04:52:39;99984.19;;;6.86;100.00
12879;BME280;20617;49.476;10.986;2022-11-12T04:55:04;99981.59;;;6.81;100.00
12879;BME280;20617;49.476;10.986;2022-11-12T04:57:27;99980.75;;;6.84;100.00
12879;BME280;20617;49.476;10.986;2022-11-12T04:59:51;99985.91;;;6.85;100.00
12879;BME280;20617;49.476;10.986;2022-11-12T05:02:14;99984.19;;;6.86;100.00
12879;BME280;20617;49.476;10.986;2022-11-12T05:04:37;99979.84;;;6.83;100.00
12879;BME280;20617;49.476;10.986;2022-11-12T05:07:04;99985.91;;;6.85;100.00
12879;BME280;20617;49.476;10.986;2022-11-12T05:09:27;99981.59;;;6.83;100.00
12879;BME280;20617;49.476;10.986;2022-11-12T05:11:51;99979.00;;;6.75;100.00
12879;BME280;20617;49.476;10.986;2022-11-12T05:14:15;99987.63;;;6.74;100.00
12879;BME280;20617;49.476;10.986;2022-11-12T05:16:39;99984.19;;;6.75;100.00
12879;BME280;20617;49.476;10.986;2022-11-12T05:19:03;99987.63;;;6.69;100.00
12879;BME280;20617;49.476;10.986;2022-11-12T05:21:26;99993.66;;;6.67;100.00
12879;BME280;20617;49.476;10.986;2022-11-12T05:24:05;99988.47;;;6.64;100.00
12879;BME280;20617;49.476;10.986;2022-11-12T05:26:50;99988.47;;;6.59;100.00
12879;BME280;20617;49.476;10.986;2022-11-12T05:29:13;99978.97;;;6.55;100.00
12879;BME280;20617;49.476;10.986;2022-11-12T05:31:36;99981.56;;;6.55;100.00
12879;BME280;20617;49.476;10.986;2022-11-12T05:33:59;99979.84;;;6.55;100.00
12879;BME280;20617;49.476;10.986;2022-11-12T05:36:23;99982.41;;;6.54;100.00
12879;BME280;20617;49.476;10.986;2022-11-12T05:38:46;99972.94;;;6.53;100.00
12879;BME280;20617;49.476;10.986;2022-11-12T05:41:12;99970.34;;;6.53;100.00
12879;BME280;20617;49.476;10.986;2022-11-12T05:43:39;99985.00;;;6.52;100.00
12879;BME280;20617;49.476;10.986;2022-11-12T05:46:02;99972.06;;;6.40;100.00
12879;BME280;20617;49.476;10.986;2022-11-12T05:48:26;99981.50;;;6.33;100.00
12879;BME280;20617;49.476;10.986;2022-11-12T05:50:51;99986.66;;;6.33;100.00
12879;BME280;20617;49.476;10.986;2022-11-12T05:53:32;99991.88;;;6.35;100.00
12879;BME280;20617;49.476;10.986;2022-11-12T05:56:00;99988.44;;;6.38;100.00
12879;BME280;20617;49.476;10.986;2022-11-12T05:58:25;99995.34;;;6.37;100.00
12879;BME280;20617;49.476;10.986;2022-11-12T06:00:49;99991.00;;;6.36;100.00
12879;BME280;20617;49.476;10.986;2022-11-12T06:03:12;99997.91;;;6.35;100.00
12879;BME280;20617;49.476;10.986;2022-11-12T06:05:36;99993.56;;;6.33;100.00
12879;BME280;20617;49.476;10.986;2022-11-12T06:07:59;99990.13;;;6.32;100.00
12879;BME280;20617;49.476;10.986;2022-11-12T06:10:23;99997.00;;;6.30;100.00
12879;BME280;20617;49.476;10.986;2022-11-12T06:12:50;99996.16;;;6.28;100.00
12879;BME280;20617;49.476;10.986;2022-11-12T06:15:16;100000.44;;;6.28;100.00
12879;BME280;20617;49.476;10.986;2022-11-12T06:17:40;100001.28;;;6.25;100.00
12879;BME280;20617;49.476;10.986;2022-11-12T06:20:05;100010.78;;;6.20;100.00
12879;BME280;20617;49.476;10.986;2022-11-12T06:22:28;100003.88;;;6.18;100.00
12879;BME280;20617;49.476;10.986;2022-11-12T06:24:51;100009.88;;;6.17;100.00
12879;BME280;20617;49.476;10.986;2022-11-12T06:27:15;100010.78;;;6.17;100.00
12879;BME280;20617;49.476;10.986;2022-11-12T06:29:38;100013.34;;;6.17;100.00
12879;BME280;20617;49.476;10.986;2022-11-12T06:32:06;100016.81;;;6.18;100.00
12879;BME280;20617;49.476;10.986;2022-11-12T06:34:30;100006.44;;;6.16;100.00
12879;BME280;20617;49.476;10.986;2022-11-12T06:36:53;100009.88;;;6.17;100.00
12879;BME280;20617;49.476;10.986;2022-11-12T06:39:17;100008.16;;;6.16;100.00
12879;BME280;20617;49.476;10.986;2022-11-12T06:41:40;100009.03;;;6.18;100.00
12879;BME280;20617;49.476;10.986;2022-11-12T06:44:04;100003.88;;;6.18;100.00
12879;BME280;20617;49.476;10.986;2022-11-12T06:46:28;100011.66;;;6.21;100.00
12879;BME280;20617;49.476;10.986;2022-11-12T06:48:54;100008.19;;;6.22;100.00
12879;BME280;20617;49.476;10.986;2022-11-12T06:51:19;100003.91;;;6.24;100.00
12879;BME280;20617;49.476;10.986;2022-11-12T06:53:45;100012.53;;;6.26;100.00
12879;BME280;20617;49.476;10.986;2022-11-12T06:56:08;100013.38;;;6.25;100.00
12879;BME280;20617;49.476;10.986;2022-11-12T06:58:32;100019.41;;;6.24;100.00
12879;BME280;20617;49.476;10.986;2022-11-12T07:00:56;100011.63;;;6.19;100.00
12879;BME280;20617;49.476;10.986;2022-11-12T07:03:19;100012.47;;;6.17;100.00
12879;BME280;20617;49.476;10.986;2022-11-12T07:05:45;100017.63;;;6.13;100.00
12879;BME280;20617;49.476;10.986;2022-11-12T07:08:08;100018.50;;;6.11;100.00
12879;BME280;20617;49.476;10.986;2022-11-12T07:10:32;100028.84;;;6.11;100.00
12879;BME280;20617;49.476;10.986;2022-11-12T07:12:55;100027.97;;;6.12;100.00
12879;BME280;20617;49.476;10.986;2022-11-12T07:15:18;100027.13;;;6.15;100.00
12879;BME280;20617;49.476;10.986;2022-11-12T07:17:44;100031.47;;;6.17;100.00
12879;BME280;20617;49.476;10.986;2022-11-12T07:20:09;100031.47;;;6.17;100.00
12879;BME280;20617;49.476;10.986;2022-11-12T07:22:35;100026.31;;;6.20;100.00
12879;BME280;20617;49.476;10.986;2022-11-12T07:24:58;100029.75;;;6.21;100.00
12879;BME280;20617;49.476;10.986;2022-11-12T07:27:22;100021.97;;;6.22;100.00
12879;BME280;20617;49.476;10.986;2022-11-12T07:29:45;100026.31;;;6.20;100.00
12879;BME280;20617;49.476;10.986;2022-11-12T07:32:08;100019.41;;;6.24;100.00
12879;BME280;20617;49.476;10.986;2022-11-12T07:34:32;100016.84;;;6.27;100.00
12879;BME280;20617;49.476;10.986;2022-11-12T07:36:55;100015.97;;;6.31;100.00
12879;BME280;20617;49.476;10.986;2022-11-12T07:39:21;100005.63;;;6.28;100.00
12879;BME280;20617;49.476;10.986;2022-11-12T07:41:46;100018.53;;;6.25;100.00
12879;BME280;20617;49.476;10.986;2022-11-12T07:44:10;100024.59;;;6.30;100.00
12879;BME280;20617;49.476;10.986;2022-11-12T07:46:34;100029.78;;;6.36;100.00
12879;BME280;20617;49.476;10.986;2022-11-12T07:48:57;100019.47;;;6.42;100.00
12879;BME280;20617;49.476;10.986;2022-11-12T07:51:22;100022.94;;;6.44;100.00
12879;BME280;20617;49.476;10.986;2022-11-12T07:53:47;100015.16;;;6.44;100.00
12879;BME280;20617;49.476;10.986;2022-11-12T07:56:22;100019.47;;;6.44;100.00
12879;BME280;20617;49.476;10.986;2022-11-12T07:58:46;100020.34;;;6.44;100.00
12879;BME280;20617;49.476;10.986;2022-11-12T08:01:13;100017.72;;;6.40;100.00
12879;BME280;20617;49.476;10.986;2022-11-12T08:03:42;100023.78;;;6.43;100.00
12879;BME280;20617;49.476;10.986;2022-11-12T08:06:06;100017.75;;;6.47;100.00
12879;BME280;20617;49.476;10.986;2022-11-12T08:08:30;100018.66;;;6.52;100.00
12879;BME280;20617;49.476;10.986;2022-11-12T08:10:54;100020.34;;;6.53;100.00
12879;BME280;20617;49.476;10.986;2022-11-12T08:13:20;100012.59;;;6.52;100.00
12879;BME280;20617;49.476;10.986;2022-11-12T08:15:44;100013.47;;;6.55;100.00
12879;BME280;20617;49.476;10.986;2022-11-12T08:18:12;100013.50;;;6.65;100.00
12879;BME280;20617;49.476;10.986;2022-11-12T08:20:36;100008.34;;;6.72;100.00
12879;BME280;20617;49.476;10.986;2022-11-12T08:23:00;100001.41;;;6.77;100.00
12879;BME280;20617;49.476;10.986;2022-11-12T08:25:23;100002.31;;;6.84;100.00
12879;BME280;20617;49.476;10.986;2022-11-12T08:27:46;100009.22;;;6.96;100.00
12879;BME280;20617;49.476;10.986;2022-11-12T08:30:13;100008.34;;;7.06;100.00
12879;BME280;20617;49.476;10.986;2022-11-12T08:32:36;100007.50;;;7.15;100.00
12879;BME280;20617;49.476;10.986;2022-11-12T08:35:00;100012.69;;;7.25;100.00
12879;BME280;20617;49.476;10.986;2022-11-12T08:37:23;100008.34;;;7.32;100.00
12879;BME280;20617;49.476;10.986;2022-11-12T08:39:47;100010.06;;;7.42;100.00
12879;BME280;20617;49.476;10.986;2022-11-12T08:42:10;100009.19;;;7.53;100.00
12879;BME280;20617;49.476;10.986;2022-11-12T08:44:34;100010.03;;;7.64;100.00
12879;BME280;20617;49.476;10.986;2022-11-12T08:47:00;100006.59;;;7.51;100.00
12879;BME280;20617;49.476;10.986;2022-11-12T08:49:23;100009.19;;;7.46;100.00
12879;BME280;20617;49.476;10.986;2022-11-12T08:51:46;100015.25;;;7.44;100.00
12879;BME280;20617;49.476;10.986;2022-11-12T08:54:10;100009.19;;;7.49;100.00
12879;BME280;20617;49.476;10.986;2022-11-12T08:56:33;100005.75;;;7.57;100.00
12879;BME280;20617;49.476;10.986;2022-11-12T08:58:56;100003.16;;;7.57;100.00
12879;BME280;20617;49.476;10.986;2022-11-12T09:01:25;99994.47;;;7.71;100.00
12879;BME280;20617;49.476;10.986;2022-11-12T09:03:51;99994.44;;;7.85;100.00
12879;BME280;20617;49.476;10.986;2022-11-12T09:06:18;99985.72;;;8.02;100.00
12879;BME280;20617;49.476;10.986;2022-11-12T09:08:44;99993.44;;;8.15;100.00
12879;BME280;20617;49.476;10.986;2022-11-12T09:11:07;99981.31;;;8.21;100.00
12879;BME280;20617;49.476;10.986;2022-11-12T09:13:31;99979.53;;;8.30;100.00
12879;BME280;20617;49.476;10.986;2022-11-12T09:15:59;99981.22;;;8.41;100.00
12879;BME280;20617;49.476;10.986;2022-11-12T09:18:23;99979.50;;;8.47;100.00
12879;BME280;20617;49.476;10.986;2022-11-12T09:20:49;99982.91;;;8.55;100.00
12879;BME280;20617;49.476;10.986;2022-11-12T09:23:14;99977.69;;;8.58;100.00
12879;BME280;20617;49.476;10.986;2022-11-12T09:25:38;99969.00;;;8.64;100.00
12879;BME280;20617;49.476;10.986;2022-11-12T09:28:05;99968.97;;;8.70;100.00
12879;BME280;20617;49.476;10.986;2022-11-12T09:30:29;99969.78;;;8.74;100.00
12879;BME280;20617;49.476;10.986;2022-11-12T09:32:56;99974.03;;;8.84;100.00
12879;BME280;20617;49.476;10.986;2022-11-12T09:35:20;99973.13;;;8.90;100.00
12879;BME280;20617;49.476;10.986;2022-11-12T09:37:46;99973.06;;;8.99;100.00
12879;BME280;20617;49.476;10.986;2022-11-12T09:40:14;99961.81;;;8.97;100.00
12879;BME280;20617;49.476;10.986;2022-11-12T09:42:39;99975.63;;;9.03;100.00
12879;BME280;20617;49.476;10.986;2022-11-12T09:45:10;99976.47;;;9.05;100.00
12879;BME280;20617;49.476;10.986;2022-11-12T09:47:37;99972.09;;;9.11;100.00
12879;BME280;20617;49.476;10.986;2022-11-12T09:50:17;99966.84;;;9.15;100.00
12879;BME280;20617;49.476;10.986;2022-11-12T09:52:50;99970.31;;;9.17;100.00
12879;BME280;20617;49.476;10.986;2022-11-12T09:55:21;99963.38;;;9.19;100.00
12879;BME280;20617;49.476;10.986;2022-11-12T09:57:46;99962.44;;;9.25;100.00
12879;BME280;20617;49.476;10.986;2022-11-12T10:00:13;99958.91;;;9.32;100.00
12879;BME280;20617;49.476;10.986;2022-11-12T10:02:42;99959.72;;;9.37;100.00
12879;BME280;20617;49.476;10.986;2022-11-12T10:05:27;99965.69;;;9.48;100.00
12879;BME280;20617;49.476;10.986;2022-11-12T10:08:04;99962.16;;;9.54;100.00
12879;BME280;20617;49.476;10.986;2022-11-12T10:10:35;99960.34;;;9.61;100.00
12879;BME280;20617;49.476;10.986;2022-11-12T10:13:16;99950.75;;;9.67;100.00
12879;BME280;20617;49.476;10.986;2022-11-12T10:15:49;99949.78;;;9.78;100.00
12879;BME280;20617;49.476;10.986;2022-11-12T10:18:34;99956.59;;;9.86;100.00
12879;BME280;20617;49.476;10.986;2022-11-12T10:21:07;99940.84;;;9.97;100.00
12879;BME280;20617;49.476;10.986;2022-11-12T10:23:41;99928.69;;;9.99;100.00
12879;BME280;20617;49.476;10.986;2022-11-12T10:26:10;99932.91;;;10.06;100.00
12879;BME280;20617;49.476;10.986;2022-11-12T10:28:39;99933.72;;;10.11;100.00
12879;BME280;20617;49.476;10.986;2022-11-12T10:31:10;99920.66;;;10.16;100.00
12879;BME280;20617;49.476;10.986;2022-11-12T10:33:33;99921.47;;;10.18;100.00
12879;BME280;20617;49.476;10.986;2022-11-12T10:36:11;99914.50;;;10.22;100.00
12879;BME280;20617;49.476;10.986;2022-11-12T10:38:40;99917.03;;;10.26;100.00
12879;BME280;20617;49.476;10.986;2022-11-12T10:41:17;99919.56;;;10.34;100.00
12879;BME280;20617;49.476;10.986;2022-11-12T10:43:52;99908.16;;;10.41;100.00
12879;BME280;20617;49.476;10.986;2022-11-12T10:46:17;99909.81;;;10.48;100.00
12879;BME280;20617;49.476;10.986;2022-11-12T10:48:52;99901.00;;;10.55;100.00
12879;BME280;20617;49.476;10.986;2022-11-12T10:51:23;99902.66;;;10.61;100.00
12879;BME280;20617;49.476;10.986;2022-11-12T10:53:51;99891.44;;;10.59;100.00
12879;BME280;20617;49.476;10.986;2022-11-12T10:56:24;99894.84;;;10.62;100.00
12879;BME280;20617;49.476;10.986;2022-11-12T10:59:08;99893.84;;;10.70;100.00
12879;BME280;20617;49.476;10.986;2022-11-12T11:01:32;99884.22;;;10.75;100.00
12879;BME280;20617;49.476;10.986;2022-11-12T11:04:03;99886.69;;;10.82;100.00
12879;BME280;20617;49.476;10.986;2022-11-12T11:06:28;99884.00;;;10.88;100.00
12879;BME280;20617;49.476;10.986;2022-11-12T11:09:12;99886.44;;;10.96;100.00
12879;BME280;20617;49.476;10.986;2022-11-12T11:11:36;99885.41;;;11.05;100.00
12879;BME280;20617;49.476;10.986;2022-11-12T11:14:23;99878.22;;;11.19;100.00
12879;BME280;20617;49.476;10.986;2022-11-12T11:16:49;99880.88;;;11.16;100.00
12879;BME280;20617;49.476;10.986;2022-11-12T11:19:12;99882.50;;;11.23;100.00
12879;BME280;20617;49.476;10.986;2022-11-12T11:21:58;99873.84;;;11.20;100.00
12879;BME280;20617;49.476;10.986;2022-11-12T11:24:35;99871.97;;;11.28;100.00
12879;BME280;20617;49.476;10.986;2022-11-12T11:27:03;99871.88;;;11.32;100.00
12879;BME280;20617;49.476;10.986;2022-11-12T11:29:37;99862.28;;;11.35;100.00
12879;BME280;20617;49.476;10.986;2022-11-12T11:32:06;99865.06;;;11.25;100.00
12879;BME280;20617;49.476;10.986;2022-11-12T11:34:38;99861.53;;;11.29;100.00
12879;BME280;20617;49.476;10.986;2022-11-12T11:37:18;99864.66;;;11.45;100.00
12879;BME280;20617;49.476;10.986;2022-11-12T11:39:50;99864.41;;;11.59;100.00
12879;BME280;20617;49.476;10.986;2022-11-12T11:42:31;99852.16;;;11.63;100.00
12879;BME280;20617;49.476;10.986;2022-11-12T11:45:04;99851.09;;;11.73;100.00
12879;BME280;20617;49.476;10.986;2022-11-12T11:47:36;99839.53;;;11.83;100.00
12879;BME280;20617;49.476;10.986;2022-11-12T11:50:26;99835.28;;;11.79;100.00
12879;BME280;20617;49.476;10.986;2022-11-12T11:52:58;99830.16;;;11.74;100.00
12879;BME280;20617;49.476;10.986;2022-11-12T11:55:36;99832.69;;;11.79;100.00
12879;BME280;20617;49.476;10.986;2022-11-12T11:58:12;99828.94;;;11.92;100.00
12879;BME280;20617;49.476;10.986;2022-11-12T12:00:45;99825.22;;;12.03;100.00
12879;BME280;20617;49.476;10.986;2022-11-12T12:03:18;99818.16;;;12.08;100.00
12879;BME280;20617;49.476;10.986;2022-11-12T12:05:48;99819.66;;;12.18;100.00
12879;BME280;20617;49.476;10.986;2022-11-12T12:08:17;99818.84;;;12.16;100.00
12879;BME280;20617;49.476;10.986;2022-11-12T12:10:55;99824.00;;;12.19;100.00
12879;BME280;20617;49.476;10.986;2022-11-12T12:13:35;99813.56;;;12.17;100.00
12879;BME280;20617;49.476;10.986;2022-11-12T12:16:21;99813.41;;;12.25;100.00
12879;BME280;20617;49.476;10.986;2022-11-12T12:18:52;99809.13;;;12.21;100.00
12879;BME280;20617;49.476;10.986;2022-11-12T12:21:20;99799.53;;;12.21;100.00
12879;BME280;20617;49.476;10.986;2022-11-12T12:23:48;99800.28;;;12.27;100.00
12879;BME280;20617;49.476;10.986;2022-11-12T12:26:18;99798.28;;;12.38;100.00
12879;BME280;20617;49.476;10.986;2022-11-12T12:28:50;99803.19;;;12.14;100.00
12879;BME280;20617;49.476;10.986;2022-11-12T12:31:20;99802.28;;;12.15;100.00
12879;BME280;20617;49.476;10.986;2022-11-12T12:33:48;99784.69;;;12.25;100.00
12879;BME280;20617;49.476;10.986;2022-11-12T12:36:16;99786.06;;;12.38;100.00
12879;BME280;20617;49.476;10.986;2022-11-12T12:38:43;99791.06;;;12.48;100.00
12879;BME280;20617;49.476;10.986;2022-11-12T12:41:16;99783.00;;;12.57;100.00
12879;BME280;20617;49.476;10.986;2022-11-12T12:43:51;99766.38;;;12.59;100.00